createdAt,value
2018-01-22T00:02:14.577Z,81.54
2018-01-22T00:04:42.895Z,81.81
2018-01-22T00:07:11.203Z,81.69
2018-01-22T00:09:39.554Z,82.30
2018-01-22T00:12:07.857Z,83.16
2018-01-22T00:14:36.926Z,82.43
2018-01-22T00:17:05.472Z,82.09
2018-01-22T00:19:33.799Z,82.14
2018-01-22T00:22:02.092Z,82.71
2018-01-22T00:24:30.454Z,82.60
2018-01-22T00:26:58.791Z,82.88
2018-01-22T00:29:27.099Z,84.19
2018-01-22T00:31:55.447Z,83.72
2018-01-22T00:34:23.742Z,82.89
2018-01-22T00:36:52.080Z,83.31
2018-01-22T00:39:20.455Z,84.03
2018-01-22T00:41:48.758Z,84.14
2018-01-22T00:44:17.060Z,83.21
2018-01-22T00:46:45.427Z,83.59
2018-01-22T00:49:13.784Z,84.18
2018-01-22T00:51:42.072Z,84.52
2018-01-22T00:54:10.409Z,84.73
2018-01-22T00:56:39.501Z,84.51
2018-01-22T00:59:08.612Z,83.50
2018-01-22T01:01:37.826Z,83.97
2018-01-22T01:04:06.148Z,84.28
2018-01-22T01:06:34.452Z,84.68
2018-01-22T01:09:02.827Z,83.47
2018-01-22T01:11:31.168Z,83.74
2018-01-22T01:14:00.236Z,83.26
2018-01-22T01:16:28.550Z,83.55
2018-01-22T01:18:56.871Z,84.90
2018-01-22T01:21:25.950Z,84.74
2018-01-22T01:23:54.554Z,84.48
2018-01-22T01:26:22.856Z,84.51
2018-01-22T01:28:51.146Z,83.55
2018-01-22T01:31:19.500Z,83.53
2018-01-22T01:33:47.797Z,83.98
2018-01-22T01:36:16.140Z,84.33
2018-01-22T01:38:45.248Z,83.91
2018-01-22T01:41:13.560Z,82.49
2018-01-22T01:43:41.876Z,83.10
2018-01-22T01:46:10.872Z,82.96
2018-01-22T01:48:39.201Z,83.17
2018-01-22T01:51:07.538Z,83.12
2018-01-22T01:53:36.634Z,83.21
2018-01-22T01:56:05.717Z,82.89
2018-01-22T01:58:34.036Z,83.13
2018-01-22T02:01:02.352Z,83.17
2018-01-22T02:03:30.679Z,83.44
2018-01-22T02:05:58.989Z,82.47
2018-01-22T02:08:27.595Z,83.10
2018-01-22T02:10:55.884Z,83.72
2018-01-22T02:13:24.204Z,83.46
2018-01-22T02:15:52.548Z,83.11
2018-01-22T02:18:20.856Z,82.25
2018-01-22T02:20:49.923Z,82.69
2018-01-22T02:23:18.251Z,82.27
2018-01-22T02:25:46.568Z,82.60
2018-01-22T02:28:14.884Z,83.58
2018-01-22T02:30:44.101Z,83.46
2018-01-22T02:33:12.438Z,82.62
2018-01-22T02:35:40.812Z,83.45
2018-01-22T02:38:09.141Z,83.73
2018-01-22T02:40:37.443Z,83.47
2018-01-22T02:43:05.764Z,83.01
2018-01-22T02:45:34.101Z,83.00
2018-01-22T02:48:02.427Z,83.51
2018-01-22T02:50:31.481Z,84.32
2018-01-22T02:53:00.316Z,83.67
2018-01-22T02:55:29.372Z,83.03
2018-01-22T02:57:57.705Z,83.22
2018-01-22T03:00:26.104Z,83.25
2018-01-22T03:02:55.188Z,83.11
2018-01-22T03:05:23.519Z,82.28
2018-01-22T03:07:51.907Z,81.82
2018-01-22T03:10:20.215Z,81.14
2018-01-22T03:12:48.875Z,81.39
2018-01-22T03:15:17.482Z,82.54
2018-01-22T03:17:45.780Z,81.95
2018-01-22T03:20:14.104Z,82.38
2018-01-22T03:22:42.448Z,82.30
2018-01-22T03:25:11.500Z,83.42
2018-01-22T03:27:39.782Z,83.56
2018-01-22T03:30:08.140Z,82.92
2018-01-22T03:32:36.456Z,83.25
2018-01-22T03:35:04.751Z,83.52
2018-01-22T03:37:33.417Z,83.77
2018-01-22T03:40:01.743Z,83.77
2018-01-22T03:42:30.083Z,83.70
2018-01-22T03:44:58.408Z,83.11
2018-01-22T03:47:26.684Z,82.76
2018-01-22T03:49:55.014Z,83.05
2018-01-22T03:52:23.318Z,82.87
2018-01-22T03:54:52.373Z,83.30
2018-01-22T03:57:20.665Z,83.77
2018-01-22T03:59:49.140Z,82.86
2018-01-22T04:02:17.447Z,82.30
2018-01-22T04:04:45.767Z,82.06
2018-01-22T04:07:17.890Z,82.01
2018-01-22T04:09:46.217Z,82.54
2018-01-22T04:12:14.549Z,82.07
2018-01-22T04:14:43.772Z,82.79
2018-01-22T04:17:12.091Z,83.01
2018-01-22T04:19:40.537Z,82.51
2018-01-22T04:22:09.400Z,82.32
2018-01-22T04:24:38.491Z,80.53
2018-01-22T04:27:07.558Z,80.74
2018-01-22T04:29:35.894Z,81.79
2018-01-22T04:32:04.279Z,82.95
2018-01-22T04:34:32.578Z,82.82
2018-01-22T04:37:00.963Z,82.46
2018-01-22T04:39:29.256Z,82.59
2018-01-22T04:41:57.552Z,82.29
2018-01-22T04:44:26.976Z,82.26
2018-01-22T04:46:55.330Z,81.92
2018-01-22T04:49:24.423Z,81.54
2018-01-22T04:51:53.518Z,81.73
2018-01-22T04:54:22.599Z,82.35
2018-01-22T04:56:51.691Z,82.67
2018-01-22T04:59:20.009Z,83.25
2018-01-22T05:01:49.068Z,82.72
2018-01-22T05:04:17.380Z,82.23
2018-01-22T05:06:46.953Z,81.60
2018-01-22T05:09:15.255Z,81.57
2018-01-22T05:11:44.320Z,82.32
2018-01-22T05:14:12.967Z,82.19
2018-01-22T05:16:41.254Z,81.68
2018-01-22T05:19:09.595Z,81.61
2018-01-22T05:21:37.920Z,81.50
2018-01-22T05:24:06.235Z,80.92
2018-01-22T05:26:34.548Z,81.20
2018-01-22T05:29:03.281Z,80.81
2018-01-22T05:31:31.628Z,80.43
2018-01-22T05:33:59.916Z,81.48
2018-01-22T05:36:28.255Z,81.08
2018-01-22T05:38:57.336Z,80.87
2018-01-22T05:41:25.623Z,81.17
2018-01-22T05:43:54.684Z,81.59
2018-01-22T05:46:23.760Z,81.23
2018-01-22T05:48:52.075Z,81.63
2018-01-22T05:51:20.523Z,81.68
2018-01-22T05:53:48.831Z,82.34
2018-01-22T05:56:17.180Z,81.79
2018-01-22T05:58:45.495Z,82.05
2018-01-22T06:01:13.787Z,81.47
2018-01-22T06:03:42.862Z,81.65
2018-01-22T06:06:11.200Z,82.12
2018-01-22T06:08:39.502Z,82.36
2018-01-22T06:11:08.582Z,82.40
2018-01-22T06:13:37.186Z,82.46
2018-01-22T06:16:05.485Z,82.29
2018-01-22T06:18:33.851Z,81.83
2018-01-22T06:21:02.156Z,81.37
2018-01-22T06:23:31.210Z,81.48
2018-01-22T06:25:59.525Z,80.88
2018-01-22T06:28:28.609Z,81.76
2018-01-22T06:30:56.919Z,81.17
2018-01-22T06:33:25.245Z,81.38
2018-01-22T06:35:53.664Z,80.51
2018-01-22T06:38:22.011Z,81.19
2018-01-22T06:40:50.327Z,81.45
2018-01-22T06:43:18.662Z,80.87
2018-01-22T06:45:46.978Z,80.37
2018-01-22T06:48:16.059Z,81.15
2018-01-22T06:50:45.167Z,82.04
2018-01-22T06:53:14.248Z,82.21
2018-01-22T06:55:43.320Z,81.77
2018-01-22T06:58:11.890Z,81.64
2018-01-22T07:00:40.200Z,81.59
2018-01-22T07:03:08.567Z,82.42
2018-01-22T07:05:36.909Z,81.97
2018-01-22T07:08:05.236Z,82.35
2018-01-22T07:10:33.527Z,82.31
2018-01-22T07:13:02.635Z,81.92
2018-01-22T07:15:31.751Z,82.04
2018-01-22T07:18:00.073Z,82.39
2018-01-22T07:20:28.887Z,81.35
2018-01-22T07:22:57.241Z,81.23
2018-01-22T07:25:25.594Z,80.94
2018-01-22T07:27:53.941Z,81.07
2018-01-22T07:30:22.268Z,80.45
2018-01-22T07:32:50.595Z,80.73
2018-01-22T07:35:18.943Z,80.75
2018-01-22T07:37:47.257Z,81.34
2018-01-22T07:40:15.592Z,81.07
2018-01-22T07:42:44.136Z,81.36
2018-01-22T07:45:12.549Z,81.37
2018-01-22T07:47:40.883Z,81.36
2018-01-22T07:50:09.248Z,81.63
2018-01-22T07:52:38.344Z,81.64
2018-01-22T07:55:06.668Z,82.02
2018-01-22T07:57:34.976Z,81.50
2018-01-22T08:00:03.304Z,81.50
2018-01-22T08:02:31.618Z,82.17
2018-01-22T08:05:00.365Z,82.30
2018-01-22T08:07:28.672Z,82.23
2018-01-22T08:09:56.973Z,81.60
2018-01-22T08:12:25.341Z,82.51
2018-01-22T08:14:53.656Z,83.28
2018-01-22T08:17:21.994Z,83.20
2018-01-22T08:19:51.127Z,82.27
2018-01-22T08:22:20.172Z,82.31
2018-01-22T08:24:48.503Z,82.21
2018-01-22T08:27:17.063Z,81.69
2018-01-22T08:29:45.463Z,81.26
2018-01-22T08:32:13.825Z,81.99
2018-01-22T08:34:42.156Z,81.79
2018-01-22T08:37:11.251Z,81.48
2018-01-22T08:39:39.578Z,81.34
2018-01-22T08:42:07.916Z,81.33
2018-01-22T08:44:36.220Z,82.24
2018-01-22T08:47:04.571Z,82.00
2018-01-22T08:49:33.604Z,81.28
2018-01-22T08:52:01.944Z,81.68
2018-01-22T08:54:30.247Z,80.51
2018-01-22T08:56:58.586Z,80.15
2018-01-22T08:59:26.913Z,80.18
2018-01-22T09:01:55.254Z,79.74
2018-01-22T09:04:23.624Z,79.74
2018-01-22T09:06:51.959Z,80.77
2018-01-22T09:09:21.075Z,81.56
2018-01-22T09:11:50.514Z,81.11
2018-01-22T09:14:18.818Z,80.46
2018-01-22T09:16:47.162Z,80.29
2018-01-22T09:19:15.518Z,80.76
2018-01-22T09:21:43.835Z,80.69
2018-01-22T09:24:12.157Z,80.03
2018-01-22T09:26:41.259Z,80.67
2018-01-22T09:29:09.580Z,79.83
2018-01-22T09:31:37.894Z,79.05
2018-01-22T09:34:06.925Z,80.32
2018-01-22T09:36:35.220Z,80.34
2018-01-22T09:39:03.543Z,79.59
2018-01-22T09:41:32.173Z,79.95
2018-01-22T09:44:00.489Z,80.27
2018-01-22T09:46:28.840Z,79.66
2018-01-22T09:48:57.184Z,79.47
2018-01-22T09:51:25.480Z,78.81
2018-01-22T09:53:53.777Z,79.48
2018-01-22T09:56:22.638Z,80.25
2018-01-22T09:58:50.993Z,79.40
2018-01-22T10:01:19.298Z,78.79
2018-01-22T10:03:47.656Z,79.80
2018-01-22T10:06:15.980Z,79.81
2018-01-22T10:08:44.276Z,81.18
2018-01-22T10:11:12.639Z,81.72
2018-01-22T10:13:40.959Z,80.73
2018-01-22T10:16:09.303Z,80.06
2018-01-22T10:18:39.027Z,79.52
2018-01-22T10:21:07.362Z,78.41
2018-01-22T10:23:35.674Z,79.83
2018-01-22T10:26:04.018Z,80.49
2018-01-22T10:28:32.347Z,80.41
2018-01-22T10:31:00.663Z,80.35
2018-01-22T10:33:29.783Z,80.95
2018-01-22T10:35:58.110Z,80.50
2018-01-22T10:38:26.423Z,80.96
2018-01-22T10:40:54.817Z,80.75
2018-01-22T10:43:23.140Z,80.80
2018-01-22T10:45:51.500Z,81.16
2018-01-22T10:48:19.961Z,80.50
2018-01-22T10:50:48.296Z,79.74
2018-01-22T10:53:17.397Z,80.71
2018-01-22T10:55:46.492Z,80.63
2018-01-22T10:58:15.580Z,81.14
2018-01-22T11:00:43.896Z,81.10
2018-01-22T11:03:12.567Z,81.69
2018-01-22T11:05:40.871Z,81.08
2018-01-22T11:08:09.187Z,81.36
2018-01-22T11:10:37.564Z,81.32
2018-01-22T11:13:05.896Z,80.62
2018-01-22T11:15:39.799Z,80.37
2018-01-22T11:18:08.147Z,80.07
2018-01-22T11:20:37.228Z,80.51
2018-01-22T11:23:05.758Z,81.84
2018-01-22T11:25:34.079Z,82.42
2018-01-22T11:28:02.426Z,81.11
2018-01-22T11:30:30.779Z,80.98
2018-01-22T11:32:59.874Z,81.21
2018-01-22T11:35:28.212Z,80.53
2018-01-22T11:37:56.567Z,80.42
2018-01-22T11:40:24.916Z,81.04
2018-01-22T11:42:53.984Z,80.64
2018-01-22T11:45:22.712Z,80.55
2018-01-22T11:47:51.009Z,79.90
2018-01-22T11:50:19.336Z,79.50
2018-01-22T11:52:48.430Z,79.74
2018-01-22T11:55:16.729Z,81.00
2018-01-22T11:57:45.067Z,80.59
2018-01-22T12:00:13.424Z,80.46
2018-01-22T12:02:41.738Z,79.78
2018-01-22T12:05:10.053Z,80.27
2018-01-22T12:07:38.741Z,81.35
2018-01-22T12:10:07.053Z,81.40
2018-01-22T12:12:35.386Z,80.47
2018-01-22T12:15:03.726Z,80.82
2018-01-22T12:17:32.025Z,81.14
2018-01-22T12:20:00.333Z,81.07
2018-01-22T12:22:28.667Z,81.33
2018-01-22T12:24:57.002Z,82.25
2018-01-22T12:27:25.297Z,81.58
2018-01-22T12:29:54.052Z,81.35
2018-01-22T12:32:22.375Z,81.34
2018-01-22T12:34:50.689Z,80.80
2018-01-22T12:37:19.788Z,80.23
2018-01-22T12:39:48.873Z,80.21
2018-01-22T12:42:17.976Z,80.91
2018-01-22T12:44:47.066Z,81.70
2018-01-22T12:47:16.131Z,82.36
2018-01-22T12:49:44.464Z,82.07
2018-01-22T12:52:13.101Z,82.68
2018-01-22T12:54:41.439Z,83.03
2018-01-22T12:57:09.728Z,82.38
2018-01-22T12:59:38.091Z,82.22
2018-01-22T13:02:06.409Z,81.63
2018-01-22T13:04:34.800Z,82.27
2018-01-22T13:07:03.917Z,82.54
2018-01-22T13:09:33.059Z,82.45
2018-01-22T13:12:01.399Z,82.03
2018-01-22T13:14:30.622Z,83.18
2018-01-22T13:16:58.977Z,82.45
2018-01-22T13:19:28.078Z,81.69
2018-01-22T13:21:57.236Z,82.14
2018-01-22T13:24:25.542Z,82.32
2018-01-22T13:26:53.852Z,82.19
2018-01-22T13:29:22.204Z,82.61
2018-01-22T13:31:51.260Z,82.00
2018-01-22T13:34:19.568Z,80.79
2018-01-22T13:36:48.953Z,80.21
2018-01-22T13:39:17.276Z,80.52
2018-01-22T13:41:45.584Z,80.09
2018-01-22T13:44:13.924Z,81.16
2018-01-22T13:46:42.245Z,80.78
2018-01-22T13:49:10.565Z,80.82
2018-01-22T13:51:38.899Z,81.58
2018-01-22T13:54:07.229Z,81.26
2018-01-22T13:56:35.548Z,81.65
2018-01-22T13:59:04.164Z,81.15
2018-01-22T14:01:32.459Z,81.28
2018-01-22T14:04:01.576Z,81.44
2018-01-22T14:06:30.651Z,82.10
2018-01-22T14:08:59.703Z,82.18
2018-01-22T14:11:28.030Z,82.02
2018-01-22T14:13:56.371Z,81.00
2018-01-22T14:16:24.679Z,79.54
2018-01-22T14:18:52.972Z,79.34
2018-01-22T14:21:22.108Z,81.56
2018-01-22T14:23:50.417Z,81.91
2018-01-22T14:26:18.721Z,81.63
2018-01-22T14:28:47.836Z,81.89
2018-01-22T14:31:16.173Z,81.65
2018-01-22T14:33:44.492Z,81.36
2018-01-22T14:36:12.988Z,81.18
2018-01-22T14:38:41.301Z,81.30
2018-01-22T14:41:09.633Z,81.78
2018-01-22T14:43:38.177Z,82.31
2018-01-22T14:46:07.308Z,81.89
2018-01-22T14:48:35.631Z,81.20
2018-01-22T14:51:03.995Z,80.29
2018-01-22T14:53:32.425Z,81.28
2018-01-22T14:56:01.498Z,80.31
2018-01-22T14:58:29.852Z,80.37
2018-01-22T15:00:58.158Z,80.02
2018-01-22T15:03:26.525Z,79.61
2018-01-22T15:05:55.348Z,79.38
2018-01-22T15:08:23.669Z,80.30
2018-01-22T15:10:51.984Z,81.03
2018-01-22T15:13:20.324Z,80.47
2018-01-22T15:15:48.692Z,80.41
2018-01-22T15:18:16.988Z,80.05
2018-01-22T15:20:46.119Z,78.95
2018-01-22T15:23:15.216Z,78.99
2018-01-22T15:25:44.313Z,77.89
2018-01-22T15:28:13.525Z,79.20
2018-01-22T15:30:41.841Z,79.59
2018-01-22T15:33:10.219Z,79.53
2018-01-22T15:35:38.574Z,79.58
2018-01-22T15:38:06.931Z,80.66
2018-01-22T15:40:36.024Z,80.01
2018-01-22T15:43:05.124Z,79.20
2018-01-22T15:45:34.362Z,79.61
2018-01-22T15:48:02.677Z,79.40
2018-01-22T15:50:31.331Z,79.18
2018-01-22T15:52:59.707Z,79.38
2018-01-22T15:55:28.052Z,79.18
2018-01-22T15:57:56.376Z,78.72
2018-01-22T16:00:24.675Z,78.94
2018-01-22T16:02:52.998Z,78.54
2018-01-22T16:05:21.318Z,79.65
2018-01-22T16:07:49.613Z,79.26
2018-01-22T16:10:17.922Z,78.79
2018-01-22T16:12:47.224Z,78.38
2018-01-22T16:15:15.548Z,78.65
2018-01-22T16:17:43.861Z,78.34
2018-01-22T16:20:12.958Z,79.16
2018-01-22T16:22:42.042Z,78.48
2018-01-22T16:25:10.339Z,78.12
2018-01-22T16:27:39.461Z,77.07
2018-01-22T16:30:07.812Z,76.88
2018-01-22T16:32:36.142Z,76.73
2018-01-22T16:35:04.827Z,76.74
2018-01-22T16:37:33.142Z,78.08
2018-01-22T16:40:01.459Z,78.93
2018-01-22T16:42:29.813Z,79.00
2018-01-22T16:44:58.108Z,78.78
2018-01-22T16:47:31.956Z,79.68
2018-01-22T16:50:01.033Z,78.71
2018-01-22T16:52:29.357Z,77.47
2018-01-22T16:54:57.962Z,77.41
2018-01-22T16:57:27.020Z,77.36
2018-01-22T16:59:55.354Z,77.30
2018-01-22T17:02:23.697Z,77.33
2018-01-22T17:04:51.990Z,77.08
2018-01-22T17:07:21.070Z,77.34
2018-01-22T17:09:49.428Z,76.63
2018-01-22T17:12:17.766Z,76.17
2018-01-22T17:14:46.075Z,76.16
2018-01-22T17:17:14.628Z,76.51
2018-01-22T17:19:42.984Z,76.90
2018-01-22T17:22:11.332Z,76.60
2018-01-22T17:24:39.682Z,76.84
2018-01-22T17:27:07.987Z,76.20
2018-01-22T17:29:36.320Z,77.27
2018-01-22T17:32:04.709Z,76.97
2018-01-22T17:34:33.043Z,75.93
2018-01-22T17:37:02.117Z,75.90
2018-01-22T17:39:31.052Z,76.10
2018-01-22T17:41:59.399Z,75.86
2018-01-22T17:44:27.738Z,76.92
2018-01-22T17:46:56.093Z,77.56
2018-01-22T17:49:24.416Z,77.23
2018-01-22T17:51:52.737Z,77.73
2018-01-22T17:54:21.082Z,77.14
2018-01-22T17:56:49.385Z,77.89
2018-01-22T17:59:18.473Z,77.76
2018-01-22T18:01:47.354Z,77.78
2018-01-22T18:04:15.664Z,78.02
2018-01-22T18:06:43.983Z,78.36
2018-01-22T18:09:12.315Z,78.06
2018-01-22T18:11:41.400Z,77.17
2018-01-22T18:14:10.491Z,77.37
2018-01-22T18:16:39.654Z,76.95
2018-01-22T18:19:07.989Z,76.23
2018-01-22T18:21:36.362Z,76.47
2018-01-22T18:24:05.026Z,77.64
2018-01-22T18:26:33.360Z,77.53
2018-01-22T18:29:01.682Z,78.16
2018-01-22T18:31:30.044Z,77.35
2018-01-22T18:33:58.357Z,76.59
2018-01-22T18:36:26.702Z,76.61
2018-01-22T18:38:55.099Z,75.83
2018-01-22T18:41:23.423Z,75.76
2018-01-22T18:43:51.773Z,75.50
2018-01-22T18:46:21.102Z,75.21
2018-01-22T18:48:49.422Z,75.04
2018-01-22T18:51:17.767Z,74.71
2018-01-22T18:53:46.111Z,75.35
2018-01-22T18:56:15.198Z,75.25
2018-01-22T18:58:44.366Z,74.91
2018-01-22T19:01:13.578Z,74.70
2018-01-22T19:03:41.910Z,74.87
2018-01-22T19:06:10.258Z,75.01
2018-01-22T19:08:39.572Z,74.52
2018-01-22T19:11:07.890Z,75.16
2018-01-22T19:13:36.223Z,75.43
2018-01-22T19:16:04.728Z,74.76
2018-01-22T19:18:33.077Z,74.63
2018-01-22T19:21:02.163Z,74.64
2018-01-22T19:23:30.492Z,74.92
2018-01-22T19:25:58.866Z,75.90
2018-01-22T19:28:27.216Z,75.86
2018-01-22T19:30:56.671Z,76.12
2018-01-22T19:33:25.763Z,76.47
2018-01-22T19:35:54.119Z,76.17
2018-01-22T19:38:22.527Z,76.92
2018-01-22T19:40:50.841Z,76.56
2018-01-22T19:43:19.953Z,76.29
2018-01-22T19:45:49.816Z,77.41
2018-01-22T19:48:18.163Z,77.91
2018-01-22T19:50:46.482Z,78.23
2018-01-22T19:53:15.128Z,79.09
2018-01-22T19:55:43.450Z,78.68
2018-01-22T19:58:11.849Z,79.20
2018-01-22T20:00:40.978Z,78.17
2018-01-22T20:03:09.301Z,78.17
2018-01-22T20:05:37.628Z,78.10
2018-01-22T20:08:06.024Z,77.73
2018-01-22T20:10:34.375Z,77.33
2018-01-22T20:13:02.712Z,77.04
2018-01-22T20:15:31.209Z,76.30
2018-01-22T20:17:59.549Z,76.56
2018-01-22T20:20:27.881Z,76.52
2018-01-22T20:22:56.266Z,75.76
2018-01-22T20:25:25.349Z,75.68
2018-01-22T20:27:54.628Z,76.03
2018-01-22T20:30:22.987Z,76.45
2018-01-22T20:32:51.330Z,76.36
2018-01-22T20:35:19.659Z,76.16
2018-01-22T20:37:48.258Z,76.60
2018-01-22T20:40:16.627Z,76.56
2018-01-22T20:42:44.934Z,76.00
2018-01-22T20:45:14.120Z,75.94
2018-01-22T20:47:42.491Z,76.51
2018-01-22T20:50:10.796Z,76.59
2018-01-22T20:52:39.923Z,76.12
2018-01-22T20:55:08.356Z,75.44
2018-01-22T20:57:37.456Z,75.37
2018-01-22T21:00:05.909Z,74.99
2018-01-22T21:02:35.861Z,75.18
2018-01-22T21:05:04.151Z,75.08
2018-01-22T21:07:33.251Z,75.29
2018-01-22T21:10:01.575Z,74.82
2018-01-22T21:12:29.888Z,74.69
2018-01-22T21:14:58.268Z,74.35
2018-01-22T21:17:27.398Z,74.42
2018-01-22T21:19:55.724Z,74.09
2018-01-22T21:22:24.445Z,73.71
2018-01-22T21:24:52.922Z,74.04
2018-01-22T21:27:21.256Z,73.94
2018-01-22T21:29:50.366Z,74.80
2018-01-22T21:32:19.468Z,74.95
2018-01-22T21:34:47.805Z,75.44
2018-01-22T21:37:16.180Z,74.63
2018-01-22T21:39:44.482Z,75.28
2018-01-22T21:42:12.938Z,75.93
2018-01-22T21:44:41.585Z,75.65
2018-01-22T21:47:09.909Z,75.83
2018-01-22T21:49:38.222Z,75.57
2018-01-22T21:52:06.636Z,75.83
2018-01-22T21:54:34.986Z,75.17
2018-01-22T21:57:03.316Z,74.72
2018-01-22T21:59:31.746Z,74.93
2018-01-22T22:02:00.849Z,74.76
2018-01-22T22:04:29.434Z,74.67
2018-01-22T22:06:58.112Z,74.21
2018-01-22T22:09:26.455Z,74.55
2018-01-22T22:11:54.768Z,74.29
2018-01-22T22:14:23.109Z,74.19
2018-01-22T22:16:51.515Z,73.74
2018-01-22T22:19:19.859Z,73.37
2018-01-22T22:21:48.241Z,73.92
2018-01-22T22:24:16.544Z,73.41
2018-01-22T22:26:44.876Z,73.08
2018-01-22T22:29:13.273Z,73.18
2018-01-22T22:31:41.589Z,73.36
2018-01-22T22:34:09.897Z,73.86
2018-01-22T22:36:39.036Z,73.63
2018-01-22T22:39:07.386Z,73.15
2018-01-22T22:41:35.780Z,72.98
2018-01-22T22:44:04.120Z,73.73
2018-01-22T22:46:32.444Z,74.41
2018-01-22T22:49:00.767Z,75.35
2018-01-22T22:51:29.326Z,74.95
2018-01-22T22:53:57.659Z,75.61
2018-01-22T22:56:25.996Z,75.26
2018-01-22T22:58:54.372Z,75.67
2018-01-22T23:01:22.721Z,75.92
2018-01-22T23:03:51.031Z,76.15
2018-01-22T23:06:19.718Z,75.57
2018-01-22T23:08:48.063Z,74.93
2018-01-22T23:11:16.369Z,74.56
2018-01-22T23:13:45.072Z,74.32
2018-01-22T23:16:13.421Z,73.95
2018-01-22T23:18:41.758Z,74.60
2018-01-22T23:21:10.084Z,74.65
2018-01-22T23:23:38.417Z,74.95
2018-01-22T23:26:06.732Z,74.90
2018-01-22T23:28:35.057Z,74.46
2018-01-22T23:31:04.155Z,74.71
2018-01-22T23:33:33.251Z,74.93
2018-01-22T23:36:02.630Z,75.07
2018-01-22T23:38:30.938Z,74.68
2018-01-22T23:40:59.265Z,74.32
2018-01-22T23:43:27.630Z,74.56
2018-01-22T23:45:55.973Z,74.39
2018-01-22T23:48:24.295Z,74.26
2018-01-22T23:50:52.626Z,74.44
2018-01-22T23:53:21.723Z,74.00
2018-01-22T23:55:50.822Z,73.97
2018-01-22T23:58:20.214Z,74.44
